Auburndale, Florida
Current Conditions -  °F | °C
As of 6:53 PM on Sunday 23 Nov 2014 (Local Time) from KGIF Reporting Station
Clear Clear  
Wind Chill: 25°   Ceiling: Unl
Heat Index: 26°   Visibility: 10mi
Dew Point: 21°   Wind: 6mph
Humidity: 76%   Direction: 220°SW
Pressure: 29.93"   Gusts: NA
Location:  28.06°N, 81.78°W
Report Text: KGIF 232353Z AUTO 22005KT 10SM CLR 25/21 A2993 RMK AO2 SLP133 T02500206 10294 20250 53015
Loading
Personal Weather Stations






























Interactive Weather Map New forecast layout! Learn more

10-Day Weather Forecast

Advertisements
Track Severe Weather on mobile